createdAt,value
2022-11-23T00:01:30.877Z,7.20
2022-11-23T00:04:01.515Z,6.78
2022-11-23T00:06:29.373Z,6.43
2022-11-23T00:08:57.241Z,7.20
2022-11-23T00:11:26.299Z,7.00
2022-11-23T00:13:55.002Z,7.60
2022-11-23T00:16:40.817Z,7.53
2022-11-23T00:19:09.547Z,8.05
2022-11-23T00:21:37.043Z,7.35
2022-11-23T00:24:04.824Z,7.78
2022-11-23T00:26:32.335Z,7.70
2022-11-23T00:28:59.844Z,8.63
2022-11-23T00:31:27.882Z,6.80
2022-11-23T00:33:56.591Z,6.88
2022-11-23T00:36:25.737Z,8.45
2022-11-23T00:38:57.946Z,5.50
2022-11-23T00:41:27.173Z,5.53
2022-11-23T00:43:55.064Z,6.93
2022-11-23T00:46:25.090Z,5.47
2022-11-23T00:48:54.383Z,6.93
2022-11-23T00:51:29.761Z,5.90
2022-11-23T00:53:57.517Z,6.18
2022-11-23T00:56:25.358Z,7.13
2022-11-23T00:58:54.458Z,7.72
2022-11-23T01:01:24.146Z,7.28
2022-11-23T01:03:54.688Z,6.88
2022-11-23T01:06:25.080Z,6.82
2022-11-23T01:08:57.998Z,7.45
2022-11-23T01:11:27.812Z,6.97
2022-11-23T01:13:55.798Z,6.63
2022-11-23T01:16:29.348Z,6.15
2022-11-23T01:19:02.056Z,6.72
2022-11-23T01:21:30.810Z,6.85
2022-11-23T01:23:58.468Z,7.53
2022-11-23T01:26:26.521Z,7.80
2022-11-23T01:28:54.013Z,7.90
2022-11-23T01:31:23.686Z,7.88
2022-11-23T01:33:59.249Z,6.55
2022-11-23T01:36:29.573Z,5.88
2022-11-23T01:38:58.482Z,5.72
2022-11-23T01:41:38.269Z,5.47
2022-11-23T01:44:25.574Z,5.53
2022-11-23T01:46:54.305Z,5.13
2022-11-23T01:49:23.175Z,5.22
2022-11-23T01:51:53.553Z,5.07
2022-11-23T01:54:32.824Z,4.95
2022-11-23T01:57:07.726Z,5.43
2022-11-23T01:59:35.693Z,5.65
2022-11-23T02:02:04.234Z,4.25
2022-11-23T02:04:39.353Z,5.40
2022-11-23T02:07:07.211Z,4.63
2022-11-23T02:09:36.158Z,4.97
2022-11-23T02:12:07.110Z,4.60
2022-11-23T02:17:02.216Z,4.05
2022-11-23T02:19:50.550Z,4.13
2022-11-23T02:22:28.825Z,4.50
2022-11-23T02:24:56.648Z,4.18
2022-11-23T02:27:24.817Z,3.92
2022-11-23T02:29:54.491Z,4.25
2022-11-23T02:32:24.883Z,3.67
2022-11-23T02:34:52.389Z,3.40
2022-11-23T02:37:19.904Z,3.22
2022-11-23T02:39:51.279Z,3.30
2022-11-23T02:42:25.173Z,3.33
2022-11-23T02:45:26.740Z,4.05
2022-11-23T02:47:54.325Z,4.63
2022-11-23T02:50:21.731Z,4.15
2022-11-23T02:52:49.173Z,3.22
2022-11-23T02:55:16.911Z,3.30
2022-11-23T02:57:44.452Z,3.75
2022-11-23T03:00:12.920Z,3.85
2022-11-23T03:02:40.392Z,4.20
2022-11-23T03:05:08.509Z,4.55
2022-11-23T03:07:36.174Z,5.13
2022-11-23T03:10:04.964Z,4.43
2022-11-23T03:12:32.369Z,4.18
2022-11-23T03:14:59.799Z,4.85
2022-11-23T03:17:28.305Z,4.90
2022-11-23T03:19:55.930Z,4.20
2022-11-23T03:22:23.493Z,4.85
2022-11-23T03:24:50.836Z,2.92
2022-11-23T03:27:18.808Z,3.85
2022-11-23T03:29:46.216Z,4.13
2022-11-23T03:32:13.689Z,4.05
2022-11-23T03:34:41.110Z,4.07
2022-11-23T03:37:08.842Z,3.72
2022-11-23T03:39:36.202Z,4.57
2022-11-23T03:42:03.673Z,4.57
2022-11-23T03:44:31.061Z,3.72
2022-11-23T03:46:59.507Z,4.70
2022-11-23T03:49:27.039Z,4.38
2022-11-23T03:51:54.509Z,4.53
2022-11-23T03:54:21.939Z,4.30
2022-11-23T03:56:49.376Z,4.00
2022-11-23T03:59:16.699Z,4.40
2022-11-23T04:01:44.087Z,4.03
2022-11-23T04:04:11.432Z,5.00
2022-11-23T04:06:38.851Z,5.13
2022-11-23T04:09:06.297Z,5.25
2022-11-23T04:11:33.746Z,3.65
2022-11-23T04:14:01.177Z,4.22
2022-11-23T04:16:28.587Z,3.30
2022-11-23T04:18:55.986Z,4.10
2022-11-23T04:21:23.501Z,3.15
2022-11-23T04:23:51.014Z,3.03
2022-11-23T04:26:18.422Z,3.47
2022-11-23T04:28:45.897Z,3.08
2022-11-23T04:31:13.362Z,2.90
2022-11-23T04:33:40.870Z,2.95
2022-11-23T04:36:08.555Z,3.38
2022-11-23T04:38:36.006Z,3.38
2022-11-23T04:41:03.623Z,3.20
2022-11-23T04:43:32.468Z,3.13
2022-11-23T04:46:00.040Z,3.67
2022-11-23T04:48:27.494Z,3.33
2022-11-23T04:50:55.931Z,3.47
2022-11-23T04:53:23.609Z,3.65
2022-11-23T04:55:51.065Z,4.13
2022-11-23T04:58:18.640Z,4.30
2022-11-23T05:00:46.224Z,4.35
2022-11-23T05:03:13.735Z,3.80
2022-11-23T05:05:41.701Z,4.55
2022-11-23T05:08:09.507Z,4.65
2022-11-23T05:10:37.779Z,4.93
2022-11-23T05:13:05.290Z,4.72
2022-11-23T05:15:33.046Z,5.00
2022-11-23T05:18:06.515Z,4.88
2022-11-23T05:20:34.836Z,5.53
2022-11-23T05:23:02.362Z,6.20
2022-11-23T05:25:30.047Z,6.45
2022-11-23T05:27:59.191Z,7.13
2022-11-23T05:30:32.349Z,7.35
2022-11-23T05:33:03.909Z,7.00
2022-11-23T05:35:31.674Z,7.57
2022-11-23T05:37:59.388Z,7.13
2022-11-23T05:40:27.180Z,6.00
2022-11-23T05:42:56.040Z,5.30
2022-11-23T05:45:24.363Z,6.28
2022-11-23T05:47:53.113Z,6.38
2022-11-23T05:50:21.987Z,6.63
2022-11-23T05:52:49.479Z,6.30
2022-11-23T05:55:17.078Z,6.50
2022-11-23T05:57:44.715Z,5.13
2022-11-23T06:00:12.816Z,4.80
2022-11-23T06:02:41.398Z,5.60
2022-11-23T06:05:09.759Z,5.50
2022-11-23T06:07:37.529Z,5.20
2022-11-23T06:10:06.494Z,5.45
2022-11-23T06:12:34.048Z,5.40
2022-11-23T06:15:01.489Z,5.60
2022-11-23T06:17:29.079Z,6.22
2022-11-23T06:19:56.642Z,7.32
2022-11-23T06:22:24.002Z,7.55
2022-11-23T06:24:51.305Z,7.78
2022-11-23T06:27:18.679Z,8.30
2022-11-23T06:29:47.227Z,7.13
2022-11-23T06:32:15.566Z,5.47
2022-11-23T06:34:43.135Z,5.38
2022-11-23T06:37:10.804Z,4.80
2022-11-23T06:39:38.171Z,5.68
2022-11-23T06:42:31.335Z,4.97
2022-11-23T06:44:52.996Z,4.80
2022-11-23T06:47:25.674Z,4.97
2022-11-23T06:49:53.613Z,4.00
2022-11-23T06:52:21.007Z,4.60
2022-11-23T06:54:48.401Z,4.53
2022-11-23T06:57:15.953Z,3.92
2022-11-23T06:59:45.704Z,3.75
2022-11-23T07:02:14.696Z,4.28
2022-11-23T07:04:42.211Z,4.57
2022-11-23T07:07:10.142Z,4.18
2022-11-23T07:09:38.296Z,3.72
2022-11-23T07:12:05.993Z,4.15
2022-11-23T07:14:33.503Z,4.18
2022-11-23T07:17:01.017Z,4.15
2022-11-23T07:19:28.407Z,4.30
2022-11-23T07:21:55.841Z,3.55
2022-11-23T07:24:23.293Z,3.25
2022-11-23T07:26:50.815Z,4.18
2022-11-23T07:29:18.162Z,3.80
2022-11-23T07:31:45.521Z,4.75
2022-11-23T07:34:12.861Z,4.97
2022-11-23T07:36:40.302Z,4.10
2022-11-23T07:39:07.742Z,4.47
2022-11-23T07:41:35.149Z,4.22
2022-11-23T07:44:02.893Z,4.00
2022-11-23T07:46:30.281Z,5.13
2022-11-23T07:49:01.938Z,6.13
2022-11-23T07:51:30.214Z,5.90
2022-11-23T07:53:57.810Z,4.88
2022-11-23T07:56:25.268Z,3.80
2022-11-23T07:58:52.612Z,4.00
2022-11-23T08:01:20.221Z,3.65
2022-11-23T08:03:48.855Z,3.78
2022-11-23T08:06:17.499Z,3.88
2022-11-23T08:08:44.975Z,4.25
2022-11-23T08:11:14.904Z,3.70
2022-11-23T08:13:42.370Z,4.90
2022-11-23T08:16:09.828Z,4.20
2022-11-23T08:18:37.453Z,4.40
2022-11-23T08:21:05.365Z,4.78
2022-11-23T08:23:32.900Z,4.85
2022-11-23T08:26:06.581Z,4.60
2022-11-23T08:28:38.737Z,4.68
2022-11-23T08:31:14.957Z,4.88
2022-11-23T08:33:42.374Z,4.82
2022-11-23T08:36:10.011Z,4.95
2022-11-23T08:38:37.389Z,4.45
2022-11-23T08:41:05.775Z,5.18
2022-11-23T08:43:33.585Z,5.45
2022-11-23T08:46:06.786Z,5.75
2022-11-23T08:48:36.822Z,5.60
2022-11-23T08:51:04.396Z,4.72
2022-11-23T08:53:32.024Z,3.67
2022-11-23T08:56:03.691Z,4.82
2022-11-23T08:58:31.412Z,4.32
2022-11-23T09:00:58.970Z,4.65
2022-11-23T09:03:26.310Z,4.18
2022-11-23T09:05:54.828Z,4.28
2022-11-23T09:08:22.171Z,3.58
2022-11-23T09:10:49.494Z,4.30
2022-11-23T09:13:16.856Z,3.83
2022-11-23T09:15:44.270Z,3.92
2022-11-23T09:18:11.739Z,3.53
2022-11-23T09:20:42.213Z,3.55
2022-11-23T09:23:13.922Z,3.55
2022-11-23T09:25:43.375Z,3.85
2022-11-23T09:28:12.777Z,3.85
2022-11-23T09:30:40.270Z,4.20
2022-11-23T09:33:08.516Z,4.05
2022-11-23T09:35:40.707Z,4.25
2022-11-23T09:38:11.135Z,4.65
2022-11-23T09:40:40.486Z,4.78
2022-11-23T09:43:38.360Z,5.10
2022-11-23T09:46:36.994Z,4.63
2022-11-23T09:49:09.980Z,4.72
2022-11-23T09:51:39.387Z,5.65
2022-11-23T09:54:22.425Z,5.25
2022-11-23T09:56:58.506Z,5.65
2022-11-23T09:59:42.246Z,5.85
2022-11-23T10:04:53.654Z,5.75
2022-11-23T10:10:09.473Z,5.53
2022-11-23T10:12:48.576Z,5.25
2022-11-23T10:15:20.922Z,5.57
2022-11-23T10:18:01.268Z,5.90
2022-11-23T10:20:50.416Z,4.43
2022-11-23T10:23:34.602Z,5.75
2022-11-23T10:26:02.063Z,6.28
2022-11-23T10:28:32.686Z,6.88
2022-11-23T10:31:16.076Z,6.07
2022-11-23T10:34:08.620Z,7.25
2022-11-23T10:36:37.418Z,6.65
2022-11-23T10:39:24.648Z,6.65
2022-11-23T10:41:53.234Z,5.90
2022-11-23T10:44:26.629Z,8.30
2022-11-23T10:46:54.047Z,7.22
2022-11-23T10:49:26.331Z,8.15
2022-11-23T10:52:25.821Z,9.10
2022-11-23T10:54:55.540Z,7.43
2022-11-23T10:57:22.886Z,7.95
2022-11-23T11:00:04.788Z,8.02
2022-11-23T11:02:45.352Z,8.50
2022-11-23T11:08:19.874Z,8.23
2022-11-23T11:10:58.867Z,7.45
2022-11-23T11:13:30.099Z,7.53
2022-11-23T11:16:00.456Z,7.75
2022-11-23T11:18:36.314Z,8.70
2022-11-23T11:21:18.878Z,8.15
2022-11-23T11:23:58.168Z,7.70
2022-11-23T11:26:27.892Z,7.75
2022-11-23T11:29:01.742Z,7.50
2022-11-23T11:31:44.240Z,7.30
2022-11-23T11:34:14.579Z,6.90
2022-11-23T11:36:59.033Z,7.78
2022-11-23T11:39:49.459Z,7.18
2022-11-23T11:42:34.449Z,7.28
2022-11-23T11:45:05.278Z,6.72
2022-11-23T11:47:39.967Z,7.25
2022-11-23T11:50:31.133Z,7.35
2022-11-23T11:53:12.463Z,6.32
2022-11-23T11:55:55.389Z,7.18
2022-11-23T11:58:25.476Z,6.70
2022-11-23T12:01:19.656Z,7.28
2022-11-23T12:04:24.167Z,7.30
2022-11-23T12:07:16.425Z,8.63
2022-11-23T12:09:52.253Z,10.05
2022-11-23T12:15:49.001Z,8.70
2022-11-23T12:21:25.745Z,5.97
2022-11-23T12:24:21.649Z,6.18
2022-11-23T12:26:54.842Z,5.90
2022-11-23T12:29:34.878Z,5.40
2022-11-23T12:32:11.016Z,6.28
2022-11-23T12:34:55.746Z,5.97
2022-11-23T12:37:40.039Z,5.63
2022-11-23T12:40:26.067Z,5.00
2022-11-23T12:43:03.069Z,6.30
2022-11-23T12:45:53.036Z,6.80
2022-11-23T12:48:46.501Z,6.30
2022-11-23T12:51:16.432Z,7.15
2022-11-23T12:53:54.852Z,8.85
2022-11-23T12:56:43.655Z,6.95
2022-11-23T12:59:11.894Z,6.72
2022-11-23T13:01:45.069Z,5.82
2022-11-23T13:04:45.997Z,6.18
2022-11-23T13:07:33.724Z,6.40
2022-11-23T13:10:14.562Z,5.82
2022-11-23T13:13:15.589Z,6.22
2022-11-23T13:16:11.375Z,5.93
2022-11-23T13:19:05.301Z,6.65
2022-11-23T13:21:42.798Z,6.70
2022-11-23T13:24:31.499Z,8.38
2022-11-23T13:30:23.682Z,9.45
2022-11-23T13:32:58.179Z,9.20
2022-11-23T13:35:25.534Z,6.68
2022-11-23T13:38:00.690Z,6.22
2022-11-23T13:40:36.588Z,7.13
2022-11-23T13:43:20.670Z,6.63
2022-11-23T13:46:20.313Z,5.78
2022-11-23T13:48:57.074Z,7.05
2022-11-23T13:51:35.608Z,5.80
2022-11-23T13:54:19.930Z,6.47
2022-11-23T13:57:02.382Z,5.63
2022-11-23T13:59:32.460Z,6.07
2022-11-23T14:02:08.988Z,6.97
2022-11-23T14:04:39.462Z,6.88
2022-11-23T14:07:21.774Z,7.32
2022-11-23T14:10:16.692Z,7.15
2022-11-23T14:12:50.094Z,7.25
2022-11-23T14:15:23.727Z,7.35
2022-11-23T14:18:05.912Z,8.18
2022-11-23T14:20:33.873Z,7.15
2022-11-23T14:23:10.633Z,7.78
2022-11-23T14:26:15.855Z,7.50
2022-11-23T14:29:04.162Z,8.82
2022-11-23T14:31:34.965Z,8.18
2022-11-23T14:37:25.904Z,6.80
2022-11-23T14:40:02.665Z,6.72
2022-11-23T14:42:31.753Z,7.35
2022-11-23T14:45:05.280Z,7.00
2022-11-23T14:47:33.900Z,8.23
2022-11-23T14:50:01.769Z,8.43
2022-11-23T14:52:35.246Z,8.20
2022-11-23T14:55:06.399Z,8.77
2022-11-23T14:57:45.420Z,8.30
2022-11-23T15:00:40.922Z,7.40
2022-11-23T15:03:48.740Z,7.75
2022-11-23T15:06:16.055Z,7.57
2022-11-23T15:08:50.165Z,8.83
